Time;durP1;ratioP1;P1;durP2;ratioP2;P2;SDS_P1;SDS_P2;PMS_P1;PMS_P2;Temp;Humidity;BMP_temperature;BMP_pressure;BME280_temperature;BME280_humidity;BME280_pressure;Samples;Min_cycle;Max_cycle;Signal;HPM_P1;HPM_P2
2022/10/13 00:01:39;;;;;;;;;14.75;13.50;;;;;16.36;58.41;101412.63;4995762;28;45189;-64
2022/10/13 00:04:05;;;;;;;;;16.25;14.25;;;;;16.43;58.32;101420.88;4994364;28;46012;-64
2022/10/13 00:06:31;;;;;;;;;14.25;13.25;;;;;16.43;58.07;101421.69;4994557;28;45382;-64
2022/10/13 00:08:57;;;;;;;;;14.25;14.25;;;;;16.45;58.44;101418.69;4995405;28;45367;-64
2022/10/13 00:11:25;;;;;;;;;14.80;14.20;;;;;16.46;58.46;101423.16;4996205;28;45366;-64
2022/10/13 00:13:51;;;;;;;;;16.00;16.00;;;;;16.34;58.14;101398.19;4995412;28;45730;-64
2022/10/13 00:16:18;;;;;;;;;14.00;13.25;;;;;16.43;58.39;101416.16;4995428;28;45459;-64
2022/10/13 00:18:44;;;;;;;;;18.00;15.60;;;;;16.44;58.26;101417.84;4994285;28;45337;-64
2022/10/13 00:21:11;;;;;;;;;12.50;12.50;;;;;16.45;58.28;101427.00;4996016;28;45488;-64
2022/10/13 00:23:37;;;;;;;;;17.80;14.00;;;;;16.44;58.23;101425.31;4995574;28;46276;-65
2022/10/13 00:26:04;;;;;;;;;15.25;15.25;;;;;16.46;58.10;101424.00;4995563;28;45268;-64
2022/10/13 00:28:29;;;;;;;;;18.20;14.00;;;;;16.46;57.98;101423.16;4995584;28;45336;-64
2022/10/13 00:30:55;;;;;;;;;14.50;14.25;;;;;16.47;58.36;101416.53;4993704;28;45557;-64
2022/10/13 00:33:20;;;;;;;;;12.50;11.00;;;;;16.47;58.26;101417.38;4993795;28;45456;-65
2022/10/13 00:35:46;;;;;;;;;18.50;14.75;;;;;16.35;58.29;101395.19;4993605;28;45395;-65
2022/10/13 00:38:12;;;;;;;;;17.60;14.00;;;;;16.21;58.16;101364.06;4993924;28;45423;-65
2022/10/13 00:40:48;;;;;;;;;17.00;15.75;;;;;16.39;58.49;101385.31;4995290;28;45511;-65
2022/10/13 00:43:16;;;;;;;;;15.40;13.20;;;;;16.39;58.39;101379.78;4994622;28;45505;-64
2022/10/13 00:45:42;;;;;;;;;13.00;12.60;;;;;16.19;58.38;101345.97;4993929;28;45981;-64
2022/10/13 00:48:07;;;;;;;;;18.00;12.50;;;;;16.08;58.59;101334.66;4993933;28;45347;-65
2022/10/13 00:50:36;;;;;;;;;18.00;16.25;;;;;16.37;58.61;101378.31;4995194;28;45375;-65
2022/10/13 00:53:01;;;;;;;;;12.80;12.00;;;;;16.31;58.65;101382.88;4977518;28;46370;-65
2022/10/13 00:55:29;;;;;;;;;14.75;14.75;;;;;16.24;59.05;101374.66;4993400;28;45451;-63
2022/10/13 00:57:57;;;;;;;;;14.00;12.40;;;;;16.29;58.93;101385.03;4977529;28;45317;-64
2022/10/13 01:00:23;;;;;;;;;14.00;12.80;;;;;16.27;59.05;101381.66;4993915;28;45647;-63
2022/10/13 01:02:48;;;;;;;;;14.75;13.00;;;;;16.13;59.05;101356.09;4994695;28;46857;-64
2022/10/13 01:05:14;;;;;;;;;14.75;13.50;;;;;16.28;59.01;101377.81;4994639;28;45447;-64
2022/10/13 01:07:39;;;;;;;;;22.50;18.25;;;;;16.25;59.25;101378.28;4994876;28;45418;-64
2022/10/13 01:10:05;;;;;;;;;16.50;13.00;;;;;16.20;59.40;101378.13;4995158;28;45778;-65
2022/10/13 01:12:53;;;;;;;;;12.25;12.25;;;;;16.23;59.12;101389.59;4997503;28;46602;-64
2022/10/13 01:15:30;;;;;;;;;14.20;13.20;;;;;16.29;59.12;101390.59;4981029;28;46127;-64
2022/10/13 01:18:07;;;;;;;;;15.80;15.40;;;;;16.28;59.39;101382.50;4981429;28;45312;-65
2022/10/13 01:20:44;;;;;;;;;24.40;16.20;;;;;16.28;59.40;101371.44;4996866;28;45455;-64
2022/10/13 01:23:28;;;;;;;;;15.40;14.40;;;;;16.28;59.43;101376.97;4998012;28;46661;-64
2022/10/13 01:26:11;;;;;;;;;11.00;10.20;;;;;16.26;59.77;101382.72;4998190;28;45329;-64
2022/10/13 01:29:04;;;;;;;;;16.80;16.20;;;;;16.27;59.78;101387.19;4997741;28;45450;-64
2022/10/13 01:31:36;;;;;;;;;14.80;12.00;;;;;16.25;59.91;101378.28;4996612;28;45334;-64
2022/10/13 01:34:05;;;;;;;;;13.40;13.00;;;;;16.21;59.76;101360.44;4980142;28;48543;-64
2022/10/13 01:36:53;;;;;;;;;13.60;12.20;;;;;16.10;60.15;101351.84;4977583;28;45313;-64
2022/10/13 01:39:39;;;;;;;;;12.60;12.60;;;;;16.07;60.19;101349.53;4977181;28;45835;-64
2022/10/13 01:42:14;;;;;;;;;15.60;13.80;;;;;16.20;60.12;101358.75;4978652;28;45905;-65
2022/10/13 01:44:42;;;;;;;;;16.00;14.80;;;;;16.18;60.33;101366.44;4976408;28;46097;-64
2022/10/13 01:47:07;;;;;;;;;14.20;13.40;;;;;16.17;60.50;101375.84;4976846;28;45453;-65
2022/10/13 01:49:33;;;;;;;;;16.75;15.50;;;;;15.96;60.31;101340.09;4960575;28;45396;-64
2022/10/13 01:52:01;;;;;;;;;15.80;15.80;;;;;16.08;61.04;101378.94;4977075;28;45738;-65
2022/10/13 01:54:27;;;;;;;;;18.00;14.60;;;;;16.09;60.61;101388.94;4976545;28;45439;-65
2022/10/13 01:56:53;;;;;;;;;16.00;16.00;;;;;16.06;60.88;101372.78;4977426;28;45392;-64
2022/10/13 01:59:19;;;;;;;;;16.20;14.80;;;;;16.08;61.13;101356.78;4978194;28;45310;-65
2022/10/13 02:02:07;;;;;;;;;21.00;17.50;;;;;16.08;60.80;101362.34;4976398;28;45285;-65
2022/10/13 02:05:06;;;;;;;;;17.80;17.60;;;;;16.08;61.26;101364.25;4957548;28;46050;-64
2022/10/13 02:07:39;;;;;;;;;18.20;16.40;;;;;16.02;61.19;101371.56;4996039;28;45468;-64
2022/10/13 02:10:20;;;;;;;;;19.60;15.00;;;;;15.85;61.16;101330.66;4996105;28;45730;-65
2022/10/13 02:12:47;;;;;;;;;16.80;13.60;;;;;16.00;61.40;101348.78;4996388;28;45482;-65
2022/10/13 02:15:15;;;;;;;;;19.60;18.20;;;;;15.94;61.67;101355.25;4997218;28;45639;-64
2022/10/13 02:17:41;;;;;;;;;17.40;16.40;;;;;15.81;61.57;101337.72;4996088;28;45323;-64
2022/10/13 02:20:07;;;;;;;;;14.75;13.25;;;;;15.92;61.93;101349.13;4997224;28;45370;-64
2022/10/13 02:22:35;;;;;;;;;15.80;15.80;;;;;15.96;61.95;101351.19;4996364;28;45640;-64
2022/10/13 02:25:00;;;;;;;;;12.60;12.60;;;;;16.03;61.52;101341.94;4979003;28;47854;-64
2022/10/13 02:27:26;;;;;;;;;15.25;14.00;;;;;16.03;61.36;101331.72;4997219;28;45479;-64
2022/10/13 02:29:53;;;;;;;;;15.25;14.00;;;;;15.94;61.71;101308.19;4997065;28;45397;-65
2022/10/13 02:32:19;;;;;;;;;16.60;11.80;;;;;16.07;61.67;101338.47;4996305;28;45331;-65
2022/10/13 02:34:44;;;;;;;;;15.25;11.75;;;;;16.09;61.30;101324.41;4979565;28;46120;-64
2022/10/13 02:37:10;;;;;;;;;10.00;8.25;;;;;16.11;61.42;101330.53;4997010;28;45372;-65
2022/10/13 02:39:35;;;;;;;;;9.50;9.00;;;;;16.10;61.23;101315.88;4996242;28;45335;-65
2022/10/13 02:42:01;;;;;;;;;11.00;11.00;;;;;16.09;61.33;101305.00;4995769;28;45481;-65
2022/10/13 02:44:26;;;;;;;;;10.50;8.25;;;;;16.06;61.02;101294.41;4996964;28;45941;-64
2022/10/13 02:46:52;;;;;;;;;16.75;9.00;;;;;16.10;61.23;101277.09;4995467;28;45228;-65
2022/10/13 02:49:17;;;;;;;;;12.75;11.50;;;;;15.89;61.41;101239.69;4995973;28;45280;-65
2022/10/13 02:51:43;;;;;;;;;10.00;9.50;;;;;15.99;61.18;101256.59;4995816;28;45337;-65
2022/10/13 02:54:08;;;;;;;;;9.00;9.00;;;;;16.10;61.31;101277.09;4995513;28;46364;-65
2022/10/13 02:56:34;;;;;;;;;11.00;9.00;;;;;16.11;61.19;101289.00;4995753;28;45420;-65
2022/10/13 02:58:59;;;;;;;;;11.00;10.00;;;;;16.03;61.07;101276.34;4996897;28;45350;-65
2022/10/13 03:01:25;;;;;;;;;9.00;8.00;;;;;16.07;61.10;101276.72;4997065;28;45529;-65
2022/10/13 03:03:50;;;;;;;;;13.00;9.50;;;;;16.21;60.87;101305.91;4996919;28;46608;-64
2022/10/13 03:06:16;;;;;;;;;9.75;8.25;;;;;15.90;60.99;101254.38;4996230;28;45530;-64
2022/10/13 03:08:42;;;;;;;;;11.75;11.75;;;;;16.20;61.22;101297.81;4995833;28;45348;-65
2022/10/13 03:11:07;;;;;;;;;10.50;9.00;;;;;16.20;60.87;101297.81;4996602;28;45548;-63
2022/10/13 03:13:33;;;;;;;;;12.50;9.50;;;;;16.03;61.17;101268.06;4996860;28;45569;-65
2022/10/13 03:15:58;;;;;;;;;12.00;11.00;;;;;16.23;61.17;101302.91;4996530;28;45323;-66
2022/10/13 03:18:24;;;;;;;;;10.25;10.25;;;;;16.13;61.35;101284.09;4995065;28;45480;-64
2022/10/13 03:20:57;;;;;;;;;13.75;11.25;;;;;16.15;61.22;101278.28;4995416;28;45383;-65
2022/10/13 03:23:23;;;;;;;;;12.20;11.80;;;;;16.06;61.51;101261.19;4996290;28;46041;-64
2022/10/13 03:25:48;;;;;;;;;14.00;9.50;;;;;16.18;61.29;101280.59;4996259;28;45379;-64
2022/10/13 03:28:14;;;;;;;;;13.75;10.50;;;;;16.15;61.46;101273.63;4996438;28;45326;-64
2022/10/13 03:30:39;;;;;;;;;10.75;10.75;;;;;16.13;61.47;101273.84;4996345;28;45359;-64
2022/10/13 03:33:05;;;;;;;;;15.25;12.00;;;;;16.08;61.71;101268.19;4996026;28;46006;-65
2022/10/13 03:35:30;;;;;;;;;13.50;11.50;;;;;16.10;61.44;101285.41;4977328;28;45554;-64
2022/10/13 03:37:56;;;;;;;;;12.00;10.25;;;;;16.07;61.75;101272.00;4995634;28;45299;-64
2022/10/13 03:40:23;;;;;;;;;13.20;10.80;;;;;16.01;61.85;101267.41;4994701;28;45398;-64
2022/10/13 03:42:49;;;;;;;;;11.80;10.60;;;;;15.92;62.14;101257.78;5010011;28;47616;-64
2022/10/13 03:45:14;;;;;;;;;8.75;8.25;;;;;15.99;61.95;101270.44;4994410;28;45362;-64
2022/10/13 03:47:40;;;;;;;;;13.00;10.25;;;;;15.98;62.25;101262.38;4993410;28;45526;-64
2022/10/13 03:50:06;;;;;;;;;10.00;10.00;;;;;15.94;62.31;101262.00;4982528;28;45816;-64
2022/10/13 03:52:32;;;;;;;;;12.40;11.40;;;;;15.93;62.31;101265.84;5010366;28;46275;-65
2022/10/13 03:54:57;;;;;;;;;13.75;13.75;;;;;15.90;62.35;101233.06;4995509;28;45441;-65
2022/10/13 03:57:23;;;;;;;;;11.75;10.25;;;;;15.92;62.26;101236.50;4994373;28;45324;-64
2022/10/13 03:59:48;;;;;;;;;12.75;11.00;;;;;15.93;62.21;101242.84;4996292;28;45421;-64
2022/10/13 04:02:14;;;;;;;;;13.25;12.00;;;;;15.92;62.41;101249.47;4995460;28;45662;-65
2022/10/13 04:04:39;;;;;;;;;16.25;11.25;;;;;15.85;62.24;101247.59;4995392;28;45466;-64
2022/10/13 04:07:06;;;;;;;;;17.25;11.75;;;;;15.76;62.54;101229.66;4995578;28;45334;-65
2022/10/13 04:09:32;;;;;;;;;13.80;13.80;;;;;15.65;62.75;101211.94;4994232;28;45568;-64
2022/10/13 04:11:57;;;;;;;;;14.60;11.80;;;;;15.11;62.53;101132.44;4994051;28;45407;-65
2022/10/13 04:14:23;;;;;;;;;15.50;13.75;;;;;15.82;62.55;101237.03;4995395;28;45343;-64
2022/10/13 04:16:49;;;;;;;;;13.50;11.75;;;;;15.54;62.64;101190.59;4995493;28;45355;-65
2022/10/13 04:19:14;;;;;;;;;11.50;11.50;;;;;15.69;62.65;101215.06;4995802;28;45299;-65
2022/10/13 04:21:40;;;;;;;;;15.00;11.25;;;;;15.85;62.34;101255.91;4993503;28;46467;-65
2022/10/13 04:24:05;;;;;;;;;14.25;13.25;;;;;15.84;62.52;101251.47;4995244;28;45605;-65
2022/10/13 04:26:33;;;;;;;;;12.25;11.25;;;;;15.89;62.44;101252.69;4995210;28;45417;-64
2022/10/13 04:28:59;;;;;;;;;10.40;10.40;;;;;15.88;62.79;101251.84;4993962;28;45465;-64
2022/10/13 04:31:24;;;;;;;;;13.00;10.25;;;;;15.56;62.62;101202.25;4995280;28;45642;-64
2022/10/13 04:33:50;;;;;;;;;14.50;11.25;;;;;15.86;62.52;101252.06;4994827;28;45535;-64
2022/10/13 04:36:16;;;;;;;;;10.50;10.00;;;;;15.77;62.27;101239.66;4983158;28;45403;-64
2022/10/13 04:38:41;;;;;;;;;10.00;10.00;;;;;15.89;62.51;101258.22;4975691;28;45380;-64
2022/10/13 04:41:07;;;;;;;;;14.25;11.75;;;;;15.90;62.44;101255.19;4990085;28;47211;-64
2022/10/13 04:43:33;;;;;;;;;15.75;15.50;;;;;15.71;62.51;101229.50;4974010;28;45233;-64
2022/10/13 04:46:03;;;;;;;;;10.75;10.75;;;;;15.90;62.32;101266.28;4974460;28;45409;-65
2022/10/13 04:48:28;;;;;;;;;14.60;10.60;;;;;15.81;62.40;101240.84;4974625;28;45381;-67
2022/10/13 04:51:08;;;;;;;;;11.75;11.00;;;;;15.94;62.45;101252.84;4958701;28;46180;-67
2022/10/13 04:53:34;;;;;;;;;11.80;10.60;;;;;15.73;62.17;101227.34;4993523;28;45343;-68
2022/10/13 04:56:01;;;;;;;;;10.00;8.25;;;;;15.90;62.42;101241.34;4977040;28;45384;-69
2022/10/13 04:58:26;;;;;;;;;15.00;12.00;;;;;15.96;62.39;101250.69;4961118;28;45607;-66
2022/10/13 05:00:52;;;;;;;;;12.25;11.00;;;;;15.89;62.40;101233.31;4993348;28;46374;-66
2022/10/13 05:03:17;;;;;;;;;18.50;13.00;;;;;15.94;62.35;101245.38;4993569;28;45328;-70
2022/10/13 05:05:43;;;;;;;;;11.75;11.50;;;;;15.98;62.02;101243.84;4994622;28;45495;-70
2022/10/13 05:08:09;;;;;;;;;16.75;10.50;;;;;15.96;62.13;101240.44;4977113;28;45521;-69
2022/10/13 05:10:34;;;;;;;;;14.75;13.25;;;;;15.93;62.71;101238.16;4994695;28;45490;-67
2022/10/13 05:12:59;;;;;;;;;15.25;12.25;;;;;15.88;62.37;101226.06;4994302;28;45428;-67
2022/10/13 05:15:25;;;;;;;;;11.00;10.50;;;;;15.91;62.39;101244.97;4977244;28;45490;-67
2022/10/13 05:17:51;;;;;;;;;16.75;12.00;;;;;15.85;62.65;101244.00;4994710;28;45218;-69
2022/10/13 05:20:17;;;;;;;;;12.25;11.00;;;;;15.85;62.73;101250.38;4993359;28;45689;-68
2022/10/13 05:22:42;;;;;;;;;9.60;9.60;;;;;15.84;62.87;101248.69;4994720;28;45331;-69
2022/10/13 05:25:08;;;;;;;;;14.00;13.75;;;;;15.82;62.60;101245.31;4993418;28;45399;-69
2022/10/13 05:27:34;;;;;;;;;11.25;9.75;;;;;15.84;63.04;101234.84;4994802;28;45836;-69
2022/10/13 05:29:59;;;;;;;;;14.00;11.75;;;;;15.86;62.97;101232.69;4994027;28;45314;-68
2022/10/13 05:32:25;;;;;;;;;11.75;10.25;;;;;15.86;62.96;101232.69;4994382;28;45316;-69
2022/10/13 05:34:50;;;;;;;;;14.25;14.25;;;;;15.86;62.83;101227.16;4994676;28;45501;-69
2022/10/13 05:37:17;;;;;;;;;11.00;10.75;;;;;15.83;62.89;101226.78;4992875;28;45632;-69
2022/10/13 05:39:43;;;;;;;;;16.20;14.20;;;;;15.44;62.98;101166.25;4993242;28;47544;-68
2022/10/13 05:42:09;;;;;;;;;12.40;10.00;;;;;15.82;63.44;101216.78;4976792;28;45505;-69
2022/10/13 05:44:36;;;;;;;;;11.00;11.00;;;;;15.84;63.30;101212.72;4994612;28;45847;-70
2022/10/13 05:47:02;;;;;;;;;11.00;11.00;;;;;15.83;62.99;101208.25;4993096;28;45604;-68
2022/10/13 05:49:28;;;;;;;;;12.00;9.40;;;;;15.71;63.20;101179.72;4993133;28;48258;-69
2022/10/13 05:51:55;;;;;;;;;12.25;10.75;;;;;15.85;63.15;101203.31;4993177;28;45374;-67
2022/10/13 05:54:25;;;;;;;;;15.80;12.60;;;;;15.83;63.22;101197.19;4976695;28;45494;-65
2022/10/13 05:56:53;;;;;;;;;17.60;14.80;;;;;15.59;63.16;101157.53;4977335;28;45323;-67
2022/10/13 05:59:19;;;;;;;;;10.60;9.40;;;;;15.81;63.15;101198.50;4979559;28;48236;-67
2022/10/13 06:01:44;;;;;;;;;14.00;11.00;;;;;15.72;63.33;101192.47;4997618;28;45297;-67
2022/10/13 06:04:16;;;;;;;;;11.50;9.00;;;;;15.83;63.40;101216.56;4979766;28;45443;-67
2022/10/13 06:06:42;;;;;;;;;9.60;9.60;;;;;15.80;63.22;101214.25;4964356;28;45290;-67
2022/10/13 06:09:07;;;;;;;;;10.50;9.50;;;;;15.80;63.29;101216.19;4979427;28;46577;-67
2022/10/13 06:11:33;;;;;;;;;8.75;8.75;;;;;15.78;63.10;101215.56;4997091;28;45279;-67
2022/10/13 06:13:58;;;;;;;;;11.00;10.00;;;;;15.72;63.15;101217.38;4996594;28;45358;-69
2022/10/13 06:16:24;;;;;;;;;11.50;9.25;;;;;15.71;63.27;101210.16;4996075;28;45644;-68
2022/10/13 06:18:49;;;;;;;;;10.25;10.25;;;;;15.51;63.34;101175.31;4979815;28;46557;-68
2022/10/13 06:21:16;;;;;;;;;10.75;8.75;;;;;15.53;63.26;101178.66;4996884;28;45432;-67
2022/10/13 06:23:41;;;;;;;;;10.80;10.60;;;;;15.52;63.30;101182.53;4997181;28;45426;-66
2022/10/13 06:26:07;;;;;;;;;11.25;11.25;;;;;15.68;63.37;101205.06;4996436;28;45516;-68
2022/10/13 06:28:33;;;;;;;;;9.40;9.40;;;;;15.70;62.94;101211.22;4979307;28;45940;-67
2022/10/13 06:30:59;;;;;;;;;8.00;8.00;;;;;15.76;63.42;101214.97;4997061;28;45301;-68
2022/10/13 06:33:24;;;;;;;;;9.50;9.00;;;;;15.29;62.60;101134.34;4995395;28;45483;-67
2022/10/13 06:35:51;;;;;;;;;9.00;9.00;;;;;15.69;63.01;101196.53;4991158;28;45265;-68
2022/10/13 06:38:16;;;;;;;;;16.40;10.80;;;;;15.73;62.76;101199.69;4976968;28;46715;-68
2022/10/13 06:40:42;;;;;;;;;9.75;9.75;;;;;15.72;62.79;101215.44;4977415;28;45271;-67
2022/10/13 06:43:08;;;;;;;;;7.50;7.50;;;;;15.59;62.83;101183.25;4977407;28;45366;-66
2022/10/13 06:45:33;;;;;;;;;8.25;8.25;;;;;15.75;62.92;101203.06;4977457;28;45747;-67
2022/10/13 06:47:59;;;;;;;;;9.75;9.75;;;;;15.74;62.74;101204.13;4977207;28;46380;-67
2022/10/13 06:50:24;;;;;;;;;8.75;8.00;;;;;15.74;62.67;101203.31;4977198;28;45407;-67
2022/10/13 06:52:50;;;;;;;;;13.50;10.25;;;;;15.62;62.57;101194.97;4970921;28;45381;-68
2022/10/13 06:55:15;;;;;;;;;14.75;10.00;;;;;15.49;62.23;101171.94;4992792;28;45580;-68
2022/10/13 06:57:41;;;;;;;;;9.00;9.00;;;;;15.75;62.63;101208.59;4995122;28;46427;-68
2022/10/13 07:00:07;;;;;;;;;10.00;8.25;;;;;15.76;62.19;101215.81;4995268;28;45493;-67
2022/10/13 07:02:33;;;;;;;;;9.60;9.60;;;;;15.61;62.27;101193.25;4962700;28;45398;-67
2022/10/13 07:04:59;;;;;;;;;11.25;9.00;;;;;15.76;62.49;101231.56;4997114;28;45354;-67
2022/10/13 07:07:24;;;;;;;;;8.00;8.00;;;;;15.78;62.35;101229.41;4996692;28;45631;-66
2022/10/13 07:09:50;;;;;;;;;8.00;8.00;;;;;15.78;62.25;101230.25;4995846;28;45242;-67
2022/10/13 07:12:16;;;;;;;;;8.75;7.75;;;;;15.78;62.21;101232.16;4996655;28;45395;-67
2022/10/13 07:14:41;;;;;;;;;8.50;7.25;;;;;15.75;62.30;101224.34;4996843;28;45199;-68
2022/10/13 07:17:07;;;;;;;;;10.80;8.80;;;;;15.76;62.65;101232.44;4996383;28;46136;-68
2022/10/13 07:19:33;;;;;;;;;9.00;7.75;;;;;15.72;62.69;101229.28;4996501;28;45317;-65
2022/10/13 07:21:58;;;;;;;;;9.00;8.75;;;;;15.75;62.82;101247.34;4996317;28;45396;-65
2022/10/13 07:24:24;;;;;;;;;8.00;7.00;;;;;15.61;62.88;101221.78;4994961;28;45396;-65
2022/10/13 07:26:50;;;;;;;;;9.75;9.50;;;;;15.64;63.25;101223.22;4994819;28;46659;-62
2022/10/13 07:29:15;;;;;;;;;10.75;7.00;;;;;15.76;62.78;101239.88;4978148;28;45521;-63
2022/10/13 07:31:44;;;;;;;;;8.00;8.00;;;;;15.75;63.13;101236.28;4995606;28;45450;-65
2022/10/13 07:34:10;;;;;;;;;9.00;7.00;;;;;15.52;63.20;101187.22;4978947;28;45536;-62
2022/10/13 07:36:37;;;;;;;;;8.50;7.00;;;;;15.66;63.18;101221.91;4996073;28;46214;-67
2022/10/13 07:39:02;;;;;;;;;7.20;7.20;;;;;15.69;63.33;101232.50;4978482;28;45848;-64
2022/10/13 07:41:28;;;;;;;;;9.00;7.75;;;;;15.36;63.17;101172.13;4978884;28;45369;-64
2022/10/13 07:43:55;;;;;;;;;7.00;7.00;;;;;15.73;62.83;101235.66;4978431;28;45579;-64
2022/10/13 07:46:20;;;;;;;;;9.00;6.40;;;;;15.77;62.58;101239.66;4994741;28;46483;-63
2022/10/13 07:48:46;;;;;;;;;7.75;7.75;;;;;15.80;62.80;101244.69;4996042;28;45447;-64
2022/10/13 07:51:12;;;;;;;;;9.00;8.50;;;;;15.82;62.66;101241.69;4995224;28;45363;-63
2022/10/13 07:53:39;;;;;;;;;15.25;15.25;;;;;15.76;62.63;101254.56;4995109;28;45495;-63
2022/10/13 07:56:05;;;;;;;;;10.40;9.40;;;;;15.76;62.69;101251.78;4938195;28;48435;-64
2022/10/13 07:58:31;;;;;;;;;8.40;7.60;;;;;15.70;62.84;101239.72;4994731;28;45267;-66
2022/10/13 08:00:57;;;;;;;;;8.00;8.00;;;;;15.51;62.68;101213.19;4978388;28;45402;-64
2022/10/13 08:03:23;;;;;;;;;7.00;7.00;;;;;15.76;63.30;101254.56;4996257;28;45256;-63
2022/10/13 08:05:48;;;;;;;;;10.25;8.50;;;;;15.65;62.89;101258.13;4994733;28;45354;-64
2022/10/13 08:08:14;;;;;;;;;7.00;7.00;;;;;15.56;62.88;101263.97;4995544;28;45381;-65
2022/10/13 08:10:39;;;;;;;;;10.00;7.50;;;;;15.58;63.28;101258.19;4994833;28;45445;-62
2022/10/13 08:13:05;;;;;;;;;8.00;7.75;;;;;15.66;63.28;101268.97;4994060;28;45401;-65
2022/10/13 08:15:30;;;;;;;;;7.00;7.00;;;;;15.69;63.19;101274.00;4995622;28;46028;-64
2022/10/13 08:17:56;;;;;;;;;7.00;7.00;;;;;15.53;63.05;101247.84;4995589;28;45437;-64
2022/10/13 08:20:21;;;;;;;;;5.25;5.25;;;;;15.62;62.87;101262.19;4994811;28;45397;-65
2022/10/13 08:22:47;;;;;;;;;9.50;6.75;;;;;15.61;63.03;101257.75;4994207;28;45497;-63
2022/10/13 08:25:12;;;;;;;;;8.00;7.25;;;;;15.66;63.06;101260.66;4995215;28;45941;-62
2022/10/13 08:27:41;;;;;;;;;7.25;6.00;;;;;15.34;63.09;101207.44;4990385;28;45977;-63
2022/10/13 08:30:07;;;;;;;;;8.20;7.40;;;;;15.65;63.29;101252.59;4994708;28;45331;-64
2022/10/13 08:32:33;;;;;;;;;7.20;7.20;;;;;15.70;63.00;101252.72;4992363;28;45544;-64
2022/10/13 08:34:58;;;;;;;;;5.25;5.25;;;;;15.74;63.00;101255.88;4993817;28;45532;-63
2022/10/13 08:37:24;;;;;;;;;6.50;4.00;;;;;15.71;62.40;101251.66;4992486;28;45312;-64
2022/10/13 08:39:50;;;;;;;;;7.25;7.00;;;;;15.15;62.57;101161.31;4976366;28;45658;-63
2022/10/13 08:42:20;;;;;;;;;4.00;4.00;;;;;15.78;62.60;101263.47;4992310;28;45474;-65
2022/10/13 08:45:00;;;;;;;;;3.60;3.60;;;;;15.81;62.65;101259.38;4987603;28;46191;-64
2022/10/13 08:47:26;;;;;;;;;4.00;3.80;;;;;15.92;62.47;101261.41;4940365;28;45490;-64
2022/10/13 08:49:52;;;;;;;;;6.00;4.25;;;;;15.93;62.55;101256.69;4978101;28;45561;-64
2022/10/13 08:52:25;;;;;;;;;7.20;5.00;;;;;16.01;62.32;101261.06;4992841;28;45313;-63
2022/10/13 08:54:52;;;;;;;;;5.80;5.40;;;;;16.01;62.23;101255.53;4993710;28;46045;-62
2022/10/13 08:57:19;;;;;;;;;5.60;5.20;;;;;16.01;61.94;101264.66;4993441;28;45462;-64
2022/10/13 08:59:45;;;;;;;;;4.80;4.60;;;;;15.89;62.58;101258.22;4992215;28;45410;-64
2022/10/13 09:02:22;;;;;;;;;4.75;4.00;;;;;15.88;62.16;101243.53;4991576;28;45584;-65
2022/10/13 09:04:49;;;;;;;;;6.20;6.20;;;;;16.06;61.91;101266.75;4992196;28;45442;-64
2022/10/13 09:07:20;;;;;;;;;9.00;6.00;;;;;16.13;61.92;101260.00;4959283;28;45876;-65
2022/10/13 09:09:49;;;;;;;;;4.80;4.80;;;;;16.11;61.79;101256.63;4956929;28;45481;-64
2022/10/13 09:12:14;;;;;;;;;7.40;4.40;;;;;16.17;61.98;101260.38;4973831;28;45675;-65
2022/10/13 09:14:40;;;;;;;;;4.00;4.00;;;;;16.19;61.90;101258.22;4981644;28;46469;-64
2022/10/13 09:17:23;;;;;;;;;5.75;5.00;;;;;16.26;61.38;101258.09;4985103;28;45355;-61
2022/10/13 09:20:15;;;;;;;;;6.00;5.40;;;;;16.35;61.55;101256.69;4992797;28;45411;-62
2022/10/13 09:22:41;;;;;;;;;5.80;4.80;;;;;16.22;61.62;101238.34;4991908;28;45583;-63
2022/10/13 09:25:08;;;;;;;;;7.40;6.20;;;;;16.37;61.42;101259.19;4958801;28;47038;-67
2022/10/13 09:27:56;;;;;;;;;5.00;4.00;;;;;16.38;61.13;101263.66;4989789;28;45458;-64
2022/10/13 09:30:31;;;;;;;;;5.80;4.80;;;;;16.35;61.36;101258.59;4992586;28;45361;-67
2022/10/13 09:33:10;;;;;;;;;5.60;5.00;;;;;16.35;61.05;101262.22;4994114;28;45613;-63
2022/10/13 09:35:37;;;;;;;;;7.20;5.80;;;;;16.39;61.50;101252.34;4995732;28;45586;-63
2022/10/13 09:38:12;;;;;;;;;5.00;5.00;;;;;16.19;61.03;101210.28;4993245;28;45734;-63
2022/10/13 09:40:39;;;;;;;;;7.40;5.40;;;;;16.48;61.23;101240.91;4994849;28;45396;-64
2022/10/13 09:43:26;;;;;;;;;8.00;7.00;;;;;16.49;61.51;101242.63;4995007;28;45527;-64
2022/10/13 09:45:52;;;;;;;;;6.00;6.00;;;;;16.51;61.88;101238.53;4993888;28;45453;-65
2022/10/13 09:48:21;;;;;;;;;8.50;5.75;;;;;16.50;62.20;101236.81;4994899;28;45971;-66
2022/10/13 09:50:51;;;;;;;;;7.80;5.00;;;;;16.38;62.34;101217.41;4993739;28;45405;-65
2022/10/13 09:53:33;;;;;;;;;6.40;5.20;;;;;16.51;62.99;101244.06;4977806;28;45654;-67
2022/10/13 09:56:33;;;;;;;;;4.60;4.60;;;;;16.46;63.07;101248.63;4979519;28;46475;-64
2022/10/13 09:59:11;;;;;;;;;7.40;4.80;;;;;16.39;63.08;101234.91;4993591;28;45494;-63
2022/10/13 10:01:38;;;;;;;;;5.80;5.20;;;;;16.45;62.96;101246.94;4978861;28;45272;-63
2022/10/13 10:04:07;;;;;;;;;7.00;7.00;;;;;16.53;63.10;101252.13;4976213;28;45359;-63
2022/10/13 10:06:33;;;;;;;;;5.00;5.00;;;;;16.55;63.58;101261.06;4994326;28;45546;-65
2022/10/13 10:09:17;;;;;;;;;7.25;5.75;;;;;16.56;63.38;101248.88;4994694;28;45422;-62
2022/10/13 10:11:44;;;;;;;;;7.00;4.60;;;;;16.54;63.42;101237.19;4977844;28;45462;-64
2022/10/13 10:14:25;;;;;;;;;7.40;6.20;;;;;16.61;63.27;101239.84;4975714;28;45360;-63
2022/10/13 10:17:20;;;;;;;;;6.60;5.60;;;;;16.65;63.26;101241.88;4962952;28;47254;-63
2022/10/13 10:20:04;;;;;;;;;7.60;5.60;;;;;16.67;63.30;101252.75;4962979;28;45733;-61
2022/10/13 10:22:40;;;;;;;;;5.60;3.80;;;;;16.62;63.27;101249.84;4989108;28;45438;-60
2022/10/13 10:25:35;;;;;;;;;5.20;4.00;;;;;16.56;63.94;101246.13;4974162;28;45749;-74
2022/10/13 10:28:24;;;;;;;;;5.60;5.40;;;;;16.59;63.45;101250.34;4977263;28;53247;-67
2022/10/13 10:31:17;;;;;;;;;6.20;6.20;;;;;16.60;63.83;101250.06;4995110;28;45503;-70
2022/10/13 10:34:23;;;;;;;;;10.60;9.00;;;;;16.60;63.82;101235.38;4995688;28;45442;-68
2022/10/13 10:37:03;;;;;;;;;11.80;8.60;;;;;16.66;63.66;101242.75;4985786;28;45311;-70
2022/10/13 10:40:08;;;;;;;;;7.20;7.20;;;;;16.71;63.56;101236.47;4994508;28;46626;-63
2022/10/13 10:42:45;;;;;;;;;7.60;4.80;;;;;16.74;63.07;101235.97;4985058;28;45417;-63
2022/10/13 10:45:25;;;;;;;;;8.00;6.80;;;;;16.62;63.94;101216.59;4993271;28;45814;-63
2022/10/13 10:48:18;;;;;;;;;8.40;7.00;;;;;16.74;63.39;101227.66;4994059;28;45606;-70
2022/10/13 10:50:44;;;;;;;;;7.00;6.00;;;;;16.76;63.53;101222.75;4982993;28;46113;-68
2022/10/13 10:53:14;;;;;;;;;6.75;6.00;;;;;16.60;63.38;101202.97;4976206;28;45772;-62
2022/10/13 10:55:54;;;;;;;;;5.40;4.20;;;;;16.74;63.69;101228.50;4994060;28;45425;-62
2022/10/13 10:59:05;;;;;;;;;6.80;4.80;;;;;16.71;63.83;101222.63;4960706;28;45447;-60
2022/10/13 11:01:36;;;;;;;;;8.20;6.80;;;;;16.75;63.53;101232.16;4980914;28;46805;-60
2022/10/13 11:04:14;;;;;;;;;9.20;8.20;;;;;16.72;63.82;101227.06;4976066;28;45316;-60
2022/10/13 11:06:39;;;;;;;;;4.80;4.80;;;;;16.69;63.67;101224.78;4995237;28;45427;-61
2022/10/13 11:09:05;;;;;;;;;7.75;7.75;;;;;16.66;63.80;101215.84;4995572;28;45324;-60
2022/10/13 11:11:41;;;;;;;;;4.75;4.75;;;;;16.61;63.50;101223.22;4995102;28;45364;-60
2022/10/13 11:14:06;;;;;;;;;6.80;6.80;;;;;16.65;63.96;101219.72;4994833;28;45638;-59
2022/10/13 11:16:58;;;;;;;;;8.25;6.25;;;;;16.68;63.92;101221.16;4993494;28;45864;-59
2022/10/13 11:19:27;;;;;;;;;7.60;7.40;;;;;16.70;63.86;101207.91;4994416;28;45407;-59
2022/10/13 11:21:52;;;;;;;;;10.00;8.40;;;;;16.76;63.98;101206.09;4994629;28;46150;-59
2022/10/13 11:24:33;;;;;;;;;7.50;6.00;;;;;16.85;63.61;101215.72;4994901;28;45426;-59
2022/10/13 11:27:34;;;;;;;;;5.80;5.00;;;;;16.94;63.57;101208.75;4996367;28;45406;-59